sensor_id;sensor_type;location;lat;lon;timestamp;temperature;humidity
9103;DHT22;4587;51.434;6.788;2023-03-01T00:01:11;1.10;99.90
9103;DHT22;4587;51.434;6.788;2023-03-01T00:03:37;1.00;99.90
9103;DHT22;4587;51.434;6.788;2023-03-01T00:06:04;1.10;99.90
9103;DHT22;4587;51.434;6.788;2023-03-01T00:08:30;1.10;99.90
9103;DHT22;4587;51.434;6.788;2023-03-01T00:11:26;1.00;99.90
9103;DHT22;4587;51.434;6.788;2023-03-01T00:13:54;1.00;99.90
9103;DHT22;4587;51.434;6.788;2023-03-01T00:16:23;1.00;99.90
9103;DHT22;4587;51.434;6.788;2023-03-01T00:18:49;1.00;99.90
9103;DHT22;4587;51.434;6.788;2023-03-01T00:21:15;1.00;99.90
9103;DHT22;4587;51.434;6.788;2023-03-01T00:23:41;1.00;99.90
9103;DHT22;4587;51.434;6.788;2023-03-01T00:26:09;0.90;99.90
9103;DHT22;4587;51.434;6.788;2023-03-01T00:28:35;0.80;99.90
9103;DHT22;4587;51.434;6.788;2023-03-01T00:31:19;0.70;99.90
9103;DHT22;4587;51.434;6.788;2023-03-01T00:33:45;0.70;99.90
9103;DHT22;4587;51.434;6.788;2023-03-01T00:36:13;0.70;99.90
9103;DHT22;4587;51.434;6.788;2023-03-01T00:38:41;0.60;99.90
9103;DHT22;4587;51.434;6.788;2023-03-01T00:41:09;0.60;99.90
9103;DHT22;4587;51.434;6.788;2023-03-01T00:43:35;0.60;99.90
9103;DHT22;4587;51.434;6.788;2023-03-01T00:46:13;0.60;99.90
9103;DHT22;4587;51.434;6.788;2023-03-01T00:48:39;0.70;99.90
9103;DHT22;4587;51.434;6.788;2023-03-01T00:51:10;0.70;99.90
9103;DHT22;4587;51.434;6.788;2023-03-01T00:53:37;0.70;99.90
9103;DHT22;4587;51.434;6.788;2023-03-01T00:56:03;0.80;99.90
9103;DHT22;4587;51.434;6.788;2023-03-01T00:58:29;0.80;99.90
9103;DHT22;4587;51.434;6.788;2023-03-01T01:00:55;0.90;99.90
9103;DHT22;4587;51.434;6.788;2023-03-01T01:03:21;0.80;99.90
9103;DHT22;4587;51.434;6.788;2023-03-01T01:05:47;0.80;99.90
9103;DHT22;4587;51.434;6.788;2023-03-01T01:08:12;0.70;99.90
9103;DHT22;4587;51.434;6.788;2023-03-01T01:10:38;0.70;99.90
9103;DHT22;4587;51.434;6.788;2023-03-01T01:13:04;0.70;99.90
9103;DHT22;4587;51.434;6.788;2023-03-01T01:15:33;0.70;99.90
9103;DHT22;4587;51.434;6.788;2023-03-01T01:18:00;0.70;99.90
9103;DHT22;4587;51.434;6.788;2023-03-01T01:20:26;0.70;99.90
9103;DHT22;4587;51.434;6.788;2023-03-01T01:22:51;0.70;99.90
9103;DHT22;4587;51.434;6.788;2023-03-01T01:25:17;0.70;99.90
9103;DHT22;4587;51.434;6.788;2023-03-01T01:27:43;0.70;99.90
9103;DHT22;4587;51.434;6.788;2023-03-01T01:30:09;0.70;99.90
9103;DHT22;4587;51.434;6.788;2023-03-01T01:32:35;0.70;99.90
9103;DHT22;4587;51.434;6.788;2023-03-01T01:35:00;0.60;99.90
9103;DHT22;4587;51.434;6.788;2023-03-01T01:37:26;0.60;99.90
9103;DHT22;4587;51.434;6.788;2023-03-01T01:39:57;0.50;99.90
9103;DHT22;4587;51.434;6.788;2023-03-01T01:42:23;0.50;99.90
9103;DHT22;4587;51.434;6.788;2023-03-01T01:45:29;0.50;99.90
9103;DHT22;4587;51.434;6.788;2023-03-01T01:47:59;0.40;99.90
9103;DHT22;4587;51.434;6.788;2023-03-01T01:50:25;0.40;99.90
9103;DHT22;4587;51.434;6.788;2023-03-01T01:52:53;0.40;99.90
9103;DHT22;4587;51.434;6.788;2023-03-01T01:55:23;0.30;99.90
9103;DHT22;4587;51.434;6.788;2023-03-01T01:57:54;0.30;99.90
9103;DHT22;4587;51.434;6.788;2023-03-01T02:00:27;0.30;99.90
9103;DHT22;4587;51.434;6.788;2023-03-01T02:02:59;0.30;99.90
9103;DHT22;4587;51.434;6.788;2023-03-01T02:08:21;0.20;99.90
9103;DHT22;4587;51.434;6.788;2023-03-01T02:10:49;0.30;99.90
9103;DHT22;4587;51.434;6.788;2023-03-01T02:13:15;0.30;99.90
9103;DHT22;4587;51.434;6.788;2023-03-01T02:15:41;0.40;99.90
9103;DHT22;4587;51.434;6.788;2023-03-01T02:18:10;0.40;99.90
9103;DHT22;4587;51.434;6.788;2023-03-01T02:20:44;0.30;99.90
9103;DHT22;4587;51.434;6.788;2023-03-01T02:23:13;0.20;99.90
9103;DHT22;4587;51.434;6.788;2023-03-01T02:28:32;0.10;99.90
9103;DHT22;4587;51.434;6.788;2023-03-01T02:30:59;0.10;99.90
9103;DHT22;4587;51.434;6.788;2023-03-01T02:33:44;0.10;99.90
9103;DHT22;4587;51.434;6.788;2023-03-01T02:36:30;0.10;99.90
9103;DHT22;4587;51.434;6.788;2023-03-01T02:38:58;0.00;99.90
9103;DHT22;4587;51.434;6.788;2023-03-01T02:41:28;0.00;99.90
9103;DHT22;4587;51.434;6.788;2023-03-01T02:43:56;0.10;99.90
9103;DHT22;4587;51.434;6.788;2023-03-01T02:46:24;0.20;99.90
9103;DHT22;4587;51.434;6.788;2023-03-01T02:49:00;0.20;99.90
9103;DHT22;4587;51.434;6.788;2023-03-01T02:52:01;0.30;99.90
9103;DHT22;4587;51.434;6.788;2023-03-01T02:57:12;0.40;99.90
9103;DHT22;4587;51.434;6.788;2023-03-01T02:59:39;0.40;99.90
9103;DHT22;4587;51.434;6.788;2023-03-01T03:02:07;0.30;99.90
9103;DHT22;4587;51.434;6.788;2023-03-01T03:04:33;0.30;99.90
9103;DHT22;4587;51.434;6.788;2023-03-01T03:06:58;0.40;99.90
9103;DHT22;4587;51.434;6.788;2023-03-01T03:09:24;0.40;99.90
9103;DHT22;4587;51.434;6.788;2023-03-01T03:11:50;0.30;99.90
9103;DHT22;4587;51.434;6.788;2023-03-01T03:14:16;0.40;99.90
9103;DHT22;4587;51.434;6.788;2023-03-01T03:16:47;0.40;99.90
9103;DHT22;4587;51.434;6.788;2023-03-01T03:19:13;0.30;99.90
9103;DHT22;4587;51.434;6.788;2023-03-01T03:21:39;0.40;99.90
9103;DHT22;4587;51.434;6.788;2023-03-01T03:24:05;0.40;99.90
9103;DHT22;4587;51.434;6.788;2023-03-01T03:26:32;0.30;99.90
9103;DHT22;4587;51.434;6.788;2023-03-01T03:28:58;0.30;99.90
9103;DHT22;4587;51.434;6.788;2023-03-01T03:31:24;0.20;99.90
9103;DHT22;4587;51.434;6.788;2023-03-01T03:33:49;0.20;99.90
9103;DHT22;4587;51.434;6.788;2023-03-01T03:36:20;0.10;99.90
9103;DHT22;4587;51.434;6.788;2023-03-01T03:38:46;0.20;99.90
9103;DHT22;4587;51.434;6.788;2023-03-01T03:41:12;0.20;99.90
9103;DHT22;4587;51.434;6.788;2023-03-01T03:43:40;0.10;99.90
9103;DHT22;4587;51.434;6.788;2023-03-01T03:46:06;0.10;99.90
9103;DHT22;4587;51.434;6.788;2023-03-01T03:48:41;0.10;99.90
9103;DHT22;4587;51.434;6.788;2023-03-01T03:51:10;0.00;99.90
9103;DHT22;4587;51.434;6.788;2023-03-01T03:53:36;0.00;99.90
9103;DHT22;4587;51.434;6.788;2023-03-01T03:56:01;0.00;99.90
9103;DHT22;4587;51.434;6.788;2023-03-01T03:58:27;0.00;99.90
9103;DHT22;4587;51.434;6.788;2023-03-01T04:00:55;0.10;99.90
9103;DHT22;4587;51.434;6.788;2023-03-01T04:03:22;0.00;99.90
9103;DHT22;4587;51.434;6.788;2023-03-01T04:05:49;0.00;99.90
9103;DHT22;4587;51.434;6.788;2023-03-01T04:08:19;0.00;99.90
9103;DHT22;4587;51.434;6.788;2023-03-01T04:10:47;-0.10;99.90
9103;DHT22;4587;51.434;6.788;2023-03-01T04:13:19;-0.10;99.90
9103;DHT22;4587;51.434;6.788;2023-03-01T04:15:46;-0.20;99.90
9103;DHT22;4587;51.434;6.788;2023-03-01T04:18:17;-0.20;99.90
9103;DHT22;4587;51.434;6.788;2023-03-01T04:20:43;-0.20;99.90
9103;DHT22;4587;51.434;6.788;2023-03-01T04:23:12;-0.20;99.90
9103;DHT22;4587;51.434;6.788;2023-03-01T04:25:45;-0.20;99.90
9103;DHT22;4587;51.434;6.788;2023-03-01T04:28:11;-0.20;99.90
9103;DHT22;4587;51.434;6.788;2023-03-01T04:30:38;-0.20;99.90
9103;DHT22;4587;51.434;6.788;2023-03-01T04:33:07;-0.20;99.90
9103;DHT22;4587;51.434;6.788;2023-03-01T04:35:34;-0.30;99.90
9103;DHT22;4587;51.434;6.788;2023-03-01T04:38:00;-0.20;99.90
9103;DHT22;4587;51.434;6.788;2023-03-01T04:40:25;-0.20;99.90
9103;DHT22;4587;51.434;6.788;2023-03-01T04:42:51;-0.30;99.90
9103;DHT22;4587;51.434;6.788;2023-03-01T04:45:17;-0.30;99.90
9103;DHT22;4587;51.434;6.788;2023-03-01T04:47:44;-0.40;99.90
9103;DHT22;4587;51.434;6.788;2023-03-01T04:50:14;-0.50;99.90
9103;DHT22;4587;51.434;6.788;2023-03-01T04:52:40;-0.60;99.90
9103;DHT22;4587;51.434;6.788;2023-03-01T04:55:07;-0.60;99.90
9103;DHT22;4587;51.434;6.788;2023-03-01T04:57:33;-0.60;99.90
9103;DHT22;4587;51.434;6.788;2023-03-01T04:59:58;-0.60;99.90
9103;DHT22;4587;51.434;6.788;2023-03-01T05:02:24;-0.70;99.90
9103;DHT22;4587;51.434;6.788;2023-03-01T05:04:50;-0.70;99.90
9103;DHT22;4587;51.434;6.788;2023-03-01T05:07:16;-0.70;99.90
9103;DHT22;4587;51.434;6.788;2023-03-01T05:09:45;-0.70;99.90
9103;DHT22;4587;51.434;6.788;2023-03-01T05:12:12;-0.80;99.90
9103;DHT22;4587;51.434;6.788;2023-03-01T05:14:37;-0.60;99.90
9103;DHT22;4587;51.434;6.788;2023-03-01T05:17:04;-0.60;99.90
9103;DHT22;4587;51.434;6.788;2023-03-01T05:19:30;-0.50;99.90
9103;DHT22;4587;51.434;6.788;2023-03-01T05:21:57;-0.60;99.90
9103;DHT22;4587;51.434;6.788;2023-03-01T05:24:33;-0.60;99.90
9103;DHT22;4587;51.434;6.788;2023-03-01T05:27:00;-0.60;99.90
9103;DHT22;4587;51.434;6.788;2023-03-01T05:29:28;-0.80;99.90
9103;DHT22;4587;51.434;6.788;2023-03-01T05:31:59;-0.60;99.90
9103;DHT22;4587;51.434;6.788;2023-03-01T05:34:28;-0.60;99.90
9103;DHT22;4587;51.434;6.788;2023-03-01T05:36:54;-0.60;99.90
9103;DHT22;4587;51.434;6.788;2023-03-01T05:39:21;-0.60;99.90
9103;DHT22;4587;51.434;6.788;2023-03-01T05:41:48;-0.60;99.90
9103;DHT22;4587;51.434;6.788;2023-03-01T05:44:14;-0.60;99.90
9103;DHT22;4587;51.434;6.788;2023-03-01T05:46:39;-0.60;99.90
9103;DHT22;4587;51.434;6.788;2023-03-01T05:49:05;-0.60;99.90
9103;DHT22;4587;51.434;6.788;2023-03-01T05:51:31;-0.60;99.90
9103;DHT22;4587;51.434;6.788;2023-03-01T05:53:57;-0.60;99.90
9103;DHT22;4587;51.434;6.788;2023-03-01T05:56:23;-0.70;99.90
9103;DHT22;4587;51.434;6.788;2023-03-01T05:58:49;-0.60;99.90
9103;DHT22;4587;51.434;6.788;2023-03-01T06:01:15;-0.60;99.90
9103;DHT22;4587;51.434;6.788;2023-03-01T06:03:41;-0.60;99.90
9103;DHT22;4587;51.434;6.788;2023-03-01T06:06:06;-0.60;99.90
9103;DHT22;4587;51.434;6.788;2023-03-01T06:08:32;-0.70;99.90
9103;DHT22;4587;51.434;6.788;2023-03-01T06:10:57;-0.60;99.90
9103;DHT22;4587;51.434;6.788;2023-03-01T06:13:23;-0.60;99.90
9103;DHT22;4587;51.434;6.788;2023-03-01T06:15:49;-0.60;99.90
9103;DHT22;4587;51.434;6.788;2023-03-01T06:18:15;-0.60;99.90
9103;DHT22;4587;51.434;6.788;2023-03-01T06:20:40;-0.60;99.90
9103;DHT22;4587;51.434;6.788;2023-03-01T06:23:06;-0.70;99.90
9103;DHT22;4587;51.434;6.788;2023-03-01T06:25:32;-0.70;99.90
9103;DHT22;4587;51.434;6.788;2023-03-01T06:27:57;-0.70;99.90
9103;DHT22;4587;51.434;6.788;2023-03-01T06:30:25;-0.60;99.90
9103;DHT22;4587;51.434;6.788;2023-03-01T06:32:51;-0.60;99.90
9103;DHT22;4587;51.434;6.788;2023-03-01T06:35:18;-0.50;99.90
9103;DHT22;4587;51.434;6.788;2023-03-01T06:37:44;-0.50;99.90
9103;DHT22;4587;51.434;6.788;2023-03-01T06:40:11;-0.60;99.90
9103;DHT22;4587;51.434;6.788;2023-03-01T06:42:38;-0.70;99.90
9103;DHT22;4587;51.434;6.788;2023-03-01T06:45:06;-0.60;99.90
9103;DHT22;4587;51.434;6.788;2023-03-01T06:47:33;-0.60;99.90
9103;DHT22;4587;51.434;6.788;2023-03-01T06:49:59;-0.70;99.90
9103;DHT22;4587;51.434;6.788;2023-03-01T06:52:25;-0.60;99.90
9103;DHT22;4587;51.434;6.788;2023-03-01T06:54:51;-0.50;99.90
9103;DHT22;4587;51.434;6.788;2023-03-01T06:57:16;-0.40;99.90
9103;DHT22;4587;51.434;6.788;2023-03-01T06:59:42;-0.30;99.90
9103;DHT22;4587;51.434;6.788;2023-03-01T07:02:11;-0.20;99.90
9103;DHT22;4587;51.434;6.788;2023-03-01T07:04:38;0.00;99.90
9103;DHT22;4587;51.434;6.788;2023-03-01T07:07:04;0.20;99.90
9103;DHT22;4587;51.434;6.788;2023-03-01T07:09:29;0.30;99.90
9103;DHT22;4587;51.434;6.788;2023-03-01T07:11:56;0.30;99.90
9103;DHT22;4587;51.434;6.788;2023-03-01T07:14:21;0.30;99.90
9103;DHT22;4587;51.434;6.788;2023-03-01T07:16:50;0.60;99.90
9103;DHT22;4587;51.434;6.788;2023-03-01T07:19:15;0.90;99.90
9103;DHT22;4587;51.434;6.788;2023-03-01T07:21:41;1.40;99.90
9103;DHT22;4587;51.434;6.788;2023-03-01T07:24:07;2.50;99.90
9103;DHT22;4587;51.434;6.788;2023-03-01T07:26:32;3.60;99.90
9103;DHT22;4587;51.434;6.788;2023-03-01T07:29:06;4.60;99.90
9103;DHT22;4587;51.434;6.788;2023-03-01T07:31:32;5.40;99.90
9103;DHT22;4587;51.434;6.788;2023-03-01T07:33:58;5.90;99.90
9103;DHT22;4587;51.434;6.788;2023-03-01T07:36:24;6.60;99.90
9103;DHT22;4587;51.434;6.788;2023-03-01T07:38:50;7.10;99.90
9103;DHT22;4587;51.434;6.788;2023-03-01T07:41:16;7.60;99.90
9103;DHT22;4587;51.434;6.788;2023-03-01T07:43:41;7.70;99.90
9103;DHT22;4587;51.434;6.788;2023-03-01T07:46:07;7.80;99.90
9103;DHT22;4587;51.434;6.788;2023-03-01T07:48:33;8.30;99.70
9103;DHT22;4587;51.434;6.788;2023-03-01T07:51:04;8.40;99.00
9103;DHT22;4587;51.434;6.788;2023-03-01T07:53:30;8.70;98.30
9103;DHT22;4587;51.434;6.788;2023-03-01T07:56:12;8.70;98.10
9103;DHT22;4587;51.434;6.788;2023-03-01T07:58:41;9.10;97.20
9103;DHT22;4587;51.434;6.788;2023-03-01T08:01:08;9.30;96.90
9103;DHT22;4587;51.434;6.788;2023-03-01T08:03:35;9.60;96.50
9103;DHT22;4587;51.434;6.788;2023-03-01T08:06:03;9.90;95.80
9103;DHT22;4587;51.434;6.788;2023-03-01T08:08:29;10.30;95.10
9103;DHT22;4587;51.434;6.788;2023-03-01T08:10:59;10.20;93.90
9103;DHT22;4587;51.434;6.788;2023-03-01T08:13:25;9.10;94.50
9103;DHT22;4587;51.434;6.788;2023-03-01T08:15:51;8.00;95.60
9103;DHT22;4587;51.434;6.788;2023-03-01T08:18:18;8.40;96.30
9103;DHT22;4587;51.434;6.788;2023-03-01T08:20:44;9.20;96.30
9103;DHT22;4587;51.434;6.788;2023-03-01T08:23:10;10.00;94.80
9103;DHT22;4587;51.434;6.788;2023-03-01T08:25:35;9.60;94.50
9103;DHT22;4587;51.434;6.788;2023-03-01T08:28:01;10.10;94.50
9103;DHT22;4587;51.434;6.788;2023-03-01T08:30:27;10.50;93.20
9103;DHT22;4587;51.434;6.788;2023-03-01T08:32:53;10.60;93.30
9103;DHT22;4587;51.434;6.788;2023-03-01T08:35:19;11.00;92.70
9103;DHT22;4587;51.434;6.788;2023-03-01T08:37:45;10.80;92.00
9103;DHT22;4587;51.434;6.788;2023-03-01T08:40:11;11.20;92.40
9103;DHT22;4587;51.434;6.788;2023-03-01T08:42:39;11.60;91.70
9103;DHT22;4587;51.434;6.788;2023-03-01T08:45:05;11.50;91.00
9103;DHT22;4587;51.434;6.788;2023-03-01T08:47:31;11.50;90.50
9103;DHT22;4587;51.434;6.788;2023-03-01T08:49:59;11.50;91.00
9103;DHT22;4587;51.434;6.788;2023-03-01T08:52:24;11.90;90.40
9103;DHT22;4587;51.434;6.788;2023-03-01T08:54:51;11.60;90.20
9103;DHT22;4587;51.434;6.788;2023-03-01T08:57:17;11.70;90.10
9103;DHT22;4587;51.434;6.788;2023-03-01T08:59:43;11.90;90.10
9103;DHT22;4587;51.434;6.788;2023-03-01T09:02:14;12.30;89.20
9103;DHT22;4587;51.434;6.788;2023-03-01T09:04:40;11.90;88.90
9103;DHT22;4587;51.434;6.788;2023-03-01T09:07:07;12.00;88.70
9103;DHT22;4587;51.434;6.788;2023-03-01T09:09:32;12.00;87.90
9103;DHT22;4587;51.434;6.788;2023-03-01T09:11:58;12.30;87.70
9103;DHT22;4587;51.434;6.788;2023-03-01T09:14:24;12.20;86.80
9103;DHT22;4587;51.434;6.788;2023-03-01T09:16:49;11.40;85.10
9103;DHT22;4587;51.434;6.788;2023-03-01T09:19:15;11.10;86.10
9103;DHT22;4587;51.434;6.788;2023-03-01T09:21:42;11.20;86.70
9103;DHT22;4587;51.434;6.788;2023-03-01T09:24:17;11.00;86.70
9103;DHT22;4587;51.434;6.788;2023-03-01T09:26:43;11.20;87.80
9103;DHT22;4587;51.434;6.788;2023-03-01T09:29:11;11.40;86.90
9103;DHT22;4587;51.434;6.788;2023-03-01T09:31:38;11.10;86.50
9103;DHT22;4587;51.434;6.788;2023-03-01T09:34:04;11.70;86.20
9103;DHT22;4587;51.434;6.788;2023-03-01T09:36:30;11.80;85.90
9103;DHT22;4587;51.434;6.788;2023-03-01T09:38:57;11.90;85.60
9103;DHT22;4587;51.434;6.788;2023-03-01T09:41:45;11.50;85.10
9103;DHT22;4587;51.434;6.788;2023-03-01T09:46:56;11.70;83.60
9103;DHT22;4587;51.434;6.788;2023-03-01T09:49:28;11.70;84.50
9103;DHT22;4587;51.434;6.788;2023-03-01T09:54:30;11.10;83.70
9103;DHT22;4587;51.434;6.788;2023-03-01T09:57:07;10.70;82.90
9103;DHT22;4587;51.434;6.788;2023-03-01T10:00:01;10.70;84.70
9103;DHT22;4587;51.434;6.788;2023-03-01T10:02:32;9.80;85.60
9103;DHT22;4587;51.434;6.788;2023-03-01T10:08:23;7.60;90.10
9103;DHT22;4587;51.434;6.788;2023-03-01T10:10:52;7.20;90.90
9103;DHT22;4587;51.434;6.788;2023-03-01T10:16:03;6.70;92.20
9103;DHT22;4587;51.434;6.788;2023-03-01T10:18:31;6.60;92.20
9103;DHT22;4587;51.434;6.788;2023-03-01T10:21:01;6.60;92.20
9103;DHT22;4587;51.434;6.788;2023-03-01T10:23:29;6.40;92.30
9103;DHT22;4587;51.434;6.788;2023-03-01T10:28:31;6.40;93.20
9103;DHT22;4587;51.434;6.788;2023-03-01T10:31:04;6.40;93.10
9103;DHT22;4587;51.434;6.788;2023-03-01T10:33:36;6.40;93.40
9103;DHT22;4587;51.434;6.788;2023-03-01T10:36:03;6.40;93.10
9103;DHT22;4587;51.434;6.788;2023-03-01T10:38:31;6.30;93.10
9103;DHT22;4587;51.434;6.788;2023-03-01T10:41:11;6.30;92.90
9103;DHT22;4587;51.434;6.788;2023-03-01T10:43:47;6.30;93.50
9103;DHT22;4587;51.434;6.788;2023-03-01T10:46:39;6.40;93.70
9103;DHT22;4587;51.434;6.788;2023-03-01T10:49:15;6.40;93.20
9103;DHT22;4587;51.434;6.788;2023-03-01T10:51:43;6.40;93.00
9103;DHT22;4587;51.434;6.788;2023-03-01T10:54:25;6.30;93.00
9103;DHT22;4587;51.434;6.788;2023-03-01T10:56:58;6.30;93.40
9103;DHT22;4587;51.434;6.788;2023-03-01T10:59:33;6.40;93.50
9103;DHT22;4587;51.434;6.788;2023-03-01T11:02:22;6.30;93.50
9103;DHT22;4587;51.434;6.788;2023-03-01T11:04:59;6.40;93.30
9103;DHT22;4587;51.434;6.788;2023-03-01T11:07:25;6.40;93.10
9103;DHT22;4587;51.434;6.788;2023-03-01T11:09:51;6.50;92.80
9103;DHT22;4587;51.434;6.788;2023-03-01T11:12:17;6.40;92.20
9103;DHT22;4587;51.434;6.788;2023-03-01T11:14:51;6.50;92.20
9103;DHT22;4587;51.434;6.788;2023-03-01T11:17:25;6.30;92.10
9103;DHT22;4587;51.434;6.788;2023-03-01T11:22:53;6.40;92.30
9103;DHT22;4587;51.434;6.788;2023-03-01T11:25:24;6.30;92.10
9103;DHT22;4587;51.434;6.788;2023-03-01T11:27:52;6.40;92.30
9103;DHT22;4587;51.434;6.788;2023-03-01T11:30:28;6.40;91.70
9103;DHT22;4587;51.434;6.788;2023-03-01T11:35:49;6.50;91.40
9103;DHT22;4587;51.434;6.788;2023-03-01T11:38:22;6.40;91.50
9103;DHT22;4587;51.434;6.788;2023-03-01T11:54:48;6.80;91.50
9103;DHT22;4587;51.434;6.788;2023-03-01T12:11:43;6.80;91.00
9103;DHT22;4587;51.434;6.788;2023-03-01T12:25:20;7.20;91.20
9103;DHT22;4587;51.434;6.788;2023-03-01T12:45:12;7.60;90.50
9103;DHT22;4587;51.434;6.788;2023-03-01T12:50:48;7.60;90.20
9103;DHT22;4587;51.434;6.788;2023-03-01T12:53:29;7.70;90.80
9103;DHT22;4587;51.434;6.788;2023-03-01T12:56:00;7.70;91.10
9103;DHT22;4587;51.434;6.788;2023-03-01T13:01:39;7.70;90.20
9103;DHT22;4587;51.434;6.788;2023-03-01T13:04:28;7.50;90.10
9103;DHT22;4587;51.434;6.788;2023-03-01T13:07:21;7.50;90.10
9103;DHT22;4587;51.434;6.788;2023-03-01T13:10:33;7.50;90.30
9103;DHT22;4587;51.434;6.788;2023-03-01T13:13:13;7.60;90.70
9103;DHT22;4587;51.434;6.788;2023-03-01T13:15:39;7.70;90.50
9103;DHT22;4587;51.434;6.788;2023-03-01T13:33:50;7.80;88.80
9103;DHT22;4587;51.434;6.788;2023-03-01T13:46:45;7.80;90.10
9103;DHT22;4587;51.434;6.788;2023-03-01T13:49:20;7.80;90.00
9103;DHT22;4587;51.434;6.788;2023-03-01T13:51:47;7.90;89.30
9103;DHT22;4587;51.434;6.788;2023-03-01T13:54:16;7.80;89.10
9103;DHT22;4587;51.434;6.788;2023-03-01T13:56:45;7.80;89.30
9103;DHT22;4587;51.434;6.788;2023-03-01T13:59:17;7.70;89.50
9103;DHT22;4587;51.434;6.788;2023-03-01T14:01:43;7.70;89.50
9103;DHT22;4587;51.434;6.788;2023-03-01T14:04:35;7.70;88.90
9103;DHT22;4587;51.434;6.788;2023-03-01T14:07:20;7.70;88.80
9103;DHT22;4587;51.434;6.788;2023-03-01T14:09:48;7.70;88.80
9103;DHT22;4587;51.434;6.788;2023-03-01T14:12:26;7.80;89.50
9103;DHT22;4587;51.434;6.788;2023-03-01T14:15:17;7.80;89.50
9103;DHT22;4587;51.434;6.788;2023-03-01T14:20:37;7.70;90.00
9103;DHT22;4587;51.434;6.788;2023-03-01T14:23:11;7.70;90.20
9103;DHT22;4587;51.434;6.788;2023-03-01T14:25:38;7.70;90.10
9103;DHT22;4587;51.434;6.788;2023-03-01T14:30:43;7.60;90.10
9103;DHT22;4587;51.434;6.788;2023-03-01T14:33:23;7.60;90.60
9103;DHT22;4587;51.434;6.788;2023-03-01T14:36:13;7.70;90.20
9103;DHT22;4587;51.434;6.788;2023-03-01T14:41:09;7.80;90.40
9103;DHT22;4587;51.434;6.788;2023-03-01T14:43:38;7.80;90.50
9103;DHT22;4587;51.434;6.788;2023-03-01T14:46:06;7.80;90.80
9103;DHT22;4587;51.434;6.788;2023-03-01T14:48:32;7.90;90.80
9103;DHT22;4587;51.434;6.788;2023-03-01T14:50:57;7.80;90.50
9103;DHT22;4587;51.434;6.788;2023-03-01T14:53:27;7.80;90.40
9103;DHT22;4587;51.434;6.788;2023-03-01T14:55:56;7.80;90.40
9103;DHT22;4587;51.434;6.788;2023-03-01T14:58:24;7.80;90.60
9103;DHT22;4587;51.434;6.788;2023-03-01T15:01:16;7.80;90.50
9103;DHT22;4587;51.434;6.788;2023-03-01T15:03:47;7.80;90.80
9103;DHT22;4587;51.434;6.788;2023-03-01T15:06:19;7.80;91.10
9103;DHT22;4587;51.434;6.788;2023-03-01T15:08:48;7.80;91.30
9103;DHT22;4587;51.434;6.788;2023-03-01T15:11:29;7.90;91.40
9103;DHT22;4587;51.434;6.788;2023-03-01T15:13:56;7.80;91.70
9103;DHT22;4587;51.434;6.788;2023-03-01T15:16:31;7.70;91.60
9103;DHT22;4587;51.434;6.788;2023-03-01T15:19:04;7.60;91.40
9103;DHT22;4587;51.434;6.788;2023-03-01T15:21:37;7.60;91.60
9103;DHT22;4587;51.434;6.788;2023-03-01T15:26:52;7.50;91.60
9103;DHT22;4587;51.434;6.788;2023-03-01T15:29:25;7.60;92.00
9103;DHT22;4587;51.434;6.788;2023-03-01T15:31:58;7.60;91.90
9103;DHT22;4587;51.434;6.788;2023-03-01T15:34:37;7.50;91.70
9103;DHT22;4587;51.434;6.788;2023-03-01T15:37:06;7.50;91.90
9103;DHT22;4587;51.434;6.788;2023-03-01T15:39:56;7.40;91.80
9103;DHT22;4587;51.434;6.788;2023-03-01T15:47:36;7.40;91.70
9103;DHT22;4587;51.434;6.788;2023-03-01T15:50:04;7.50;91.60
9103;DHT22;4587;51.434;6.788;2023-03-01T15:52:35;7.50;91.40
9103;DHT22;4587;51.434;6.788;2023-03-01T15:55:14;7.40;91.20
9103;DHT22;4587;51.434;6.788;2023-03-01T15:57:40;7.40;91.50
9103;DHT22;4587;51.434;6.788;2023-03-01T16:00:09;7.50;91.70
9103;DHT22;4587;51.434;6.788;2023-03-01T16:02:39;7.40;91.70
9103;DHT22;4587;51.434;6.788;2023-03-01T16:05:28;7.40;91.70
9103;DHT22;4587;51.434;6.788;2023-03-01T16:07:52;7.40;91.90
9103;DHT22;4587;51.434;6.788;2023-03-01T16:10:19;7.40;91.90
9103;DHT22;4587;51.434;6.788;2023-03-01T16:12:44;7.30;91.80
9103;DHT22;4587;51.434;6.788;2023-03-01T16:15:19;7.20;91.90
9103;DHT22;4587;51.434;6.788;2023-03-01T16:17:46;7.20;91.60
9103;DHT22;4587;51.434;6.788;2023-03-01T16:20:12;7.20;91.60
9103;DHT22;4587;51.434;6.788;2023-03-01T16:22:44;7.10;91.20
9103;DHT22;4587;51.434;6.788;2023-03-01T16:25:11;7.00;91.30
9103;DHT22;4587;51.434;6.788;2023-03-01T16:27:38;7.00;91.40
9103;DHT22;4587;51.434;6.788;2023-03-01T16:30:05;7.00;91.20
9103;DHT22;4587;51.434;6.788;2023-03-01T16:32:31;7.00;91.40
9103;DHT22;4587;51.434;6.788;2023-03-01T16:34:57;7.00;91.40
9103;DHT22;4587;51.434;6.788;2023-03-01T16:37:22;6.90;91.50
9103;DHT22;4587;51.434;6.788;2023-03-01T16:39:48;6.90;91.60
9103;DHT22;4587;51.434;6.788;2023-03-01T16:42:17;6.90;91.60
9103;DHT22;4587;51.434;6.788;2023-03-01T16:44:43;6.80;91.90
9103;DHT22;4587;51.434;6.788;2023-03-01T16:47:08;6.80;92.10
9103;DHT22;4587;51.434;6.788;2023-03-01T16:49:34;6.80;92.10
9103;DHT22;4587;51.434;6.788;2023-03-01T16:52:00;6.70;92.20
9103;DHT22;4587;51.434;6.788;2023-03-01T16:54:25;6.60;92.20
9103;DHT22;4587;51.434;6.788;2023-03-01T16:56:51;6.50;92.90
9103;DHT22;4587;51.434;6.788;2023-03-01T16:59:16;6.40;92.70
9103;DHT22;4587;51.434;6.788;2023-03-01T17:01:44;6.40;92.80
9103;DHT22;4587;51.434;6.788;2023-03-01T17:04:13;6.50;92.90
9103;DHT22;4587;51.434;6.788;2023-03-01T17:06:38;6.50;93.00
9103;DHT22;4587;51.434;6.788;2023-03-01T17:09:04;6.30;93.20
9103;DHT22;4587;51.434;6.788;2023-03-01T17:11:30;6.30;93.60
9103;DHT22;4587;51.434;6.788;2023-03-01T17:13:56;6.30;93.60
9103;DHT22;4587;51.434;6.788;2023-03-01T17:16:22;6.20;93.70
9103;DHT22;4587;51.434;6.788;2023-03-01T17:18:48;6.10;93.90
9103;DHT22;4587;51.434;6.788;2023-03-01T17:21:14;6.10;94.00
9103;DHT22;4587;51.434;6.788;2023-03-01T17:23:42;6.10;93.90
9103;DHT22;4587;51.434;6.788;2023-03-01T17:26:08;5.90;94.10
9103;DHT22;4587;51.434;6.788;2023-03-01T17:28:35;5.80;94.30
9103;DHT22;4587;51.434;6.788;2023-03-01T17:31:03;5.80;94.40
9103;DHT22;4587;51.434;6.788;2023-03-01T17:33:29;5.90;94.30
9103;DHT22;4587;51.434;6.788;2023-03-01T17:35:56;5.90;94.90
9103;DHT22;4587;51.434;6.788;2023-03-01T17:38:22;5.80;94.30
9103;DHT22;4587;51.434;6.788;2023-03-01T17:40:47;5.70;94.40
9103;DHT22;4587;51.434;6.788;2023-03-01T17:43:15;5.70;94.30
9103;DHT22;4587;51.434;6.788;2023-03-01T17:45:41;5.60;94.50
9103;DHT22;4587;51.434;6.788;2023-03-01T17:48:11;5.70;94.60
9103;DHT22;4587;51.434;6.788;2023-03-01T17:50:38;5.70;94.60
9103;DHT22;4587;51.434;6.788;2023-03-01T17:53:05;5.60;94.80
9103;DHT22;4587;51.434;6.788;2023-03-01T17:55:34;5.60;95.00
9103;DHT22;4587;51.434;6.788;2023-03-01T17:58:00;5.60;95.10
9103;DHT22;4587;51.434;6.788;2023-03-01T18:00:26;5.50;95.20
9103;DHT22;4587;51.434;6.788;2023-03-01T18:02:53;5.40;95.50
9103;DHT22;4587;51.434;6.788;2023-03-01T18:05:18;5.30;95.60
9103;DHT22;4587;51.434;6.788;2023-03-01T18:07:44;5.40;95.80
9103;DHT22;4587;51.434;6.788;2023-03-01T18:10:10;5.40;95.70
9103;DHT22;4587;51.434;6.788;2023-03-01T18:12:35;5.40;96.00
9103;DHT22;4587;51.434;6.788;2023-03-01T18:15:03;5.40;96.00
9103;DHT22;4587;51.434;6.788;2023-03-01T18:17:29;5.30;96.00
9103;DHT22;4587;51.434;6.788;2023-03-01T18:19:54;5.30;96.10
9103;DHT22;4587;51.434;6.788;2023-03-01T18:22:21;5.20;96.30
9103;DHT22;4587;51.434;6.788;2023-03-01T18:24:47;5.20;96.60
9103;DHT22;4587;51.434;6.788;2023-03-01T18:27:12;5.20;96.60
9103;DHT22;4587;51.434;6.788;2023-03-01T18:29:38;5.20;96.40
9103;DHT22;4587;51.434;6.788;2023-03-01T18:32:04;5.30;96.40
9103;DHT22;4587;51.434;6.788;2023-03-01T18:34:30;5.20;96.40
9103;DHT22;4587;51.434;6.788;2023-03-01T18:36:56;5.20;96.90
9103;DHT22;4587;51.434;6.788;2023-03-01T18:39:22;5.10;96.70